sensor_id;sensor_type;location;lat;lon;timestamp;P1;durP1;ratioP1;P2;durP2;ratioP2
48040;SDS011;33815;48.386;11.738;2022-12-16T00:00:04;58.05;;;26.17;;
48040;SDS011;33815;48.386;11.738;2022-12-16T00:02:30;57.92;;;27.48;;
48040;SDS011;33815;48.386;11.738;2022-12-16T00:04:56;58.92;;;27.67;;
48040;SDS011;33815;48.386;11.738;2022-12-16T00:07:21;54.92;;;26.77;;
48040;SDS011;33815;48.386;11.738;2022-12-16T00:09:47;62.35;;;26.67;;
48040;SDS011;33815;48.386;11.738;2022-12-16T00:12:12;60.35;;;27.70;;
48040;SDS011;33815;48.386;11.738;2022-12-16T00:14:38;50.13;;;24.80;;
48040;SDS011;33815;48.386;11.738;2022-12-16T00:17:03;55.03;;;26.67;;
48040;SDS011;33815;48.386;11.738;2022-12-16T00:19:28;52.92;;;26.85;;
48040;SDS011;33815;48.386;11.738;2022-12-16T00:21:55;48.70;;;25.45;;
48040;SDS011;33815;48.386;11.738;2022-12-16T00:24:20;52.28;;;25.73;;
48040;SDS011;33815;48.386;11.738;2022-12-16T00:26:46;55.95;;;27.13;;
48040;SDS011;33815;48.386;11.738;2022-12-16T00:29:11;58.38;;;26.90;;
48040;SDS011;33815;48.386;11.738;2022-12-16T00:31:36;60.92;;;26.15;;
48040;SDS011;33815;48.386;11.738;2022-12-16T00:34:02;53.47;;;25.83;;
48040;SDS011;33815;48.386;11.738;2022-12-16T00:36:27;54.55;;;26.13;;
48040;SDS011;33815;48.386;11.738;2022-12-16T00:38:52;49.08;;;23.23;;
48040;SDS011;33815;48.386;11.738;2022-12-16T00:41:18;55.92;;;25.50;;
48040;SDS011;33815;48.386;11.738;2022-12-16T00:43:43;51.22;;;24.73;;
48040;SDS011;33815;48.386;11.738;2022-12-16T00:46:08;50.47;;;25.30;;
48040;SDS011;33815;48.386;11.738;2022-12-16T00:48:34;49.85;;;25.83;;
48040;SDS011;33815;48.386;11.738;2022-12-16T00:50:59;51.15;;;25.90;;
48040;SDS011;33815;48.386;11.738;2022-12-16T00:53:24;50.78;;;24.15;;
48040;SDS011;33815;48.386;11.738;2022-12-16T00:55:50;52.85;;;24.83;;
48040;SDS011;33815;48.386;11.738;2022-12-16T00:58:17;49.28;;;25.92;;
48040;SDS011;33815;48.386;11.738;2022-12-16T01:00:42;47.50;;;23.45;;
48040;SDS011;33815;48.386;11.738;2022-12-16T01:03:08;47.35;;;23.08;;
48040;SDS011;33815;48.386;11.738;2022-12-16T01:05:33;54.38;;;26.48;;
48040;SDS011;33815;48.386;11.738;2022-12-16T01:08:01;54.25;;;25.90;;
48040;SDS011;33815;48.386;11.738;2022-12-16T01:10:26;53.15;;;25.00;;
48040;SDS011;33815;48.386;11.738;2022-12-16T01:12:52;45.90;;;23.83;;
48040;SDS011;33815;48.386;11.738;2022-12-16T01:15:17;46.95;;;24.10;;
48040;SDS011;33815;48.386;11.738;2022-12-16T01:17:43;47.03;;;26.08;;
48040;SDS011;33815;48.386;11.738;2022-12-16T01:20:09;49.92;;;24.63;;
48040;SDS011;33815;48.386;11.738;2022-12-16T01:22:35;49.33;;;25.27;;
48040;SDS011;33815;48.386;11.738;2022-12-16T01:25:00;47.67;;;23.70;;
48040;SDS011;33815;48.386;11.738;2022-12-16T01:27:26;48.85;;;23.58;;
48040;SDS011;33815;48.386;11.738;2022-12-16T01:29:52;50.28;;;26.08;;
48040;SDS011;33815;48.386;11.738;2022-12-16T01:32:18;53.03;;;25.70;;
48040;SDS011;33815;48.386;11.738;2022-12-16T01:34:43;47.88;;;24.80;;
48040;SDS011;33815;48.386;11.738;2022-12-16T01:37:12;57.00;;;26.67;;
48040;SDS011;33815;48.386;11.738;2022-12-16T01:39:38;50.97;;;25.50;;
48040;SDS011;33815;48.386;11.738;2022-12-16T01:42:04;61.05;;;26.55;;
48040;SDS011;33815;48.386;11.738;2022-12-16T01:44:36;54.78;;;25.88;;
48040;SDS011;33815;48.386;11.738;2022-12-16T01:47:02;52.58;;;27.05;;
48040;SDS011;33815;48.386;11.738;2022-12-16T01:49:52;47.35;;;26.25;;
48040;SDS011;33815;48.386;11.738;2022-12-16T01:52:21;54.53;;;25.02;;
48040;SDS011;33815;48.386;11.738;2022-12-16T01:54:52;53.78;;;26.35;;
48040;SDS011;33815;48.386;11.738;2022-12-16T01:57:25;55.03;;;25.05;;
48040;SDS011;33815;48.386;11.738;2022-12-16T01:59:57;50.75;;;25.67;;
48040;SDS011;33815;48.386;11.738;2022-12-16T02:02:23;48.95;;;24.25;;
48040;SDS011;33815;48.386;11.738;2022-12-16T02:04:48;54.75;;;27.17;;
48040;SDS011;33815;48.386;11.738;2022-12-16T02:07:32;45.28;;;23.65;;
48040;SDS011;33815;48.386;11.738;2022-12-16T02:09:58;51.10;;;25.90;;
48040;SDS011;33815;48.386;11.738;2022-12-16T02:12:28;50.50;;;25.30;;
48040;SDS011;33815;48.386;11.738;2022-12-16T02:15:01;57.13;;;25.67;;
48040;SDS011;33815;48.386;11.738;2022-12-16T02:17:39;53.67;;;25.13;;
48040;SDS011;33815;48.386;11.738;2022-12-16T02:42:14;56.13;;;25.02;;
48040;SDS011;33815;48.386;11.738;2022-12-16T02:47:21;55.97;;;26.27;;
48040;SDS011;33815;48.386;11.738;2022-12-16T02:49:49;52.20;;;24.80;;
48040;SDS011;33815;48.386;11.738;2022-12-16T02:52:17;54.58;;;27.35;;
48040;SDS011;33815;48.386;11.738;2022-12-16T02:54:45;54.97;;;25.75;;
48040;SDS011;33815;48.386;11.738;2022-12-16T02:59:51;51.08;;;25.48;;
48040;SDS011;33815;48.386;11.738;2022-12-16T03:02:40;48.28;;;24.27;;
48040;SDS011;33815;48.386;11.738;2022-12-16T03:05:33;50.83;;;24.77;;
48040;SDS011;33815;48.386;11.738;2022-12-16T03:08:06;52.85;;;26.05;;
48040;SDS011;33815;48.386;11.738;2022-12-16T03:10:42;49.80;;;25.95;;
48040;SDS011;33815;48.386;11.738;2022-12-16T03:13:10;52.25;;;25.38;;
48040;SDS011;33815;48.386;11.738;2022-12-16T03:15:38;60.13;;;27.40;;
48040;SDS011;33815;48.386;11.738;2022-12-16T03:18:06;53.80;;;27.45;;
48040;SDS011;33815;48.386;11.738;2022-12-16T03:20:37;57.03;;;25.85;;
48040;SDS011;33815;48.386;11.738;2022-12-16T03:23:24;57.88;;;27.70;;
48040;SDS011;33815;48.386;11.738;2022-12-16T03:25:55;60.38;;;27.52;;
48040;SDS011;33815;48.386;11.738;2022-12-16T03:28:34;61.65;;;27.40;;
48040;SDS011;33815;48.386;11.738;2022-12-16T03:31:11;60.05;;;28.80;;
48040;SDS011;33815;48.386;11.738;2022-12-16T03:33:44;57.15;;;28.10;;
48040;SDS011;33815;48.386;11.738;2022-12-16T03:36:18;59.67;;;28.55;;
48040;SDS011;33815;48.386;11.738;2022-12-16T03:38:46;56.20;;;27.15;;
48040;SDS011;33815;48.386;11.738;2022-12-16T03:41:14;66.05;;;29.55;;
48040;SDS011;33815;48.386;11.738;2022-12-16T03:43:41;61.17;;;28.85;;
48040;SDS011;33815;48.386;11.738;2022-12-16T03:46:07;61.63;;;27.95;;
48040;SDS011;33815;48.386;11.738;2022-12-16T03:48:34;56.55;;;27.58;;
48040;SDS011;33815;48.386;11.738;2022-12-16T03:51:00;56.15;;;27.60;;
48040;SDS011;33815;48.386;11.738;2022-12-16T03:53:25;64.72;;;29.40;;
48040;SDS011;33815;48.386;11.738;2022-12-16T03:55:51;61.17;;;29.80;;
48040;SDS011;33815;48.386;11.738;2022-12-16T03:58:17;62.40;;;27.58;;
48040;SDS011;33815;48.386;11.738;2022-12-16T04:00:43;63.35;;;28.45;;
48040;SDS011;33815;48.386;11.738;2022-12-16T04:03:08;60.42;;;28.58;;
48040;SDS011;33815;48.386;11.738;2022-12-16T04:05:33;62.88;;;30.30;;
48040;SDS011;33815;48.386;11.738;2022-12-16T04:07:59;64.97;;;29.23;;
48040;SDS011;33815;48.386;11.738;2022-12-16T04:10:24;64.80;;;27.92;;
48040;SDS011;33815;48.386;11.738;2022-12-16T04:13:08;66.30;;;30.40;;
48040;SDS011;33815;48.386;11.738;2022-12-16T04:15:53;64.95;;;29.45;;
48040;SDS011;33815;48.386;11.738;2022-12-16T04:18:38;61.35;;;26.77;;
48040;SDS011;33815;48.386;11.738;2022-12-16T04:21:23;59.08;;;28.52;;
48040;SDS011;33815;48.386;11.738;2022-12-16T04:24:09;69.20;;;28.77;;
48040;SDS011;33815;48.386;11.738;2022-12-16T04:26:43;65.07;;;29.70;;
48040;SDS011;33815;48.386;11.738;2022-12-16T04:29:31;62.20;;;29.10;;
48040;SDS011;33815;48.386;11.738;2022-12-16T04:31:56;62.38;;;30.23;;
48040;SDS011;33815;48.386;11.738;2022-12-16T04:34:22;73.95;;;31.30;;
48040;SDS011;33815;48.386;11.738;2022-12-16T04:36:52;66.78;;;29.00;;
48040;SDS011;33815;48.386;11.738;2022-12-16T04:39:37;63.28;;;30.10;;
48040;SDS011;33815;48.386;11.738;2022-12-16T04:42:21;67.47;;;29.23;;
48040;SDS011;33815;48.386;11.738;2022-12-16T04:45:05;64.00;;;29.92;;
48040;SDS011;33815;48.386;11.738;2022-12-16T04:47:49;65.13;;;31.08;;
48040;SDS011;33815;48.386;11.738;2022-12-16T04:50:33;64.35;;;28.65;;
48040;SDS011;33815;48.386;11.738;2022-12-16T04:53:17;58.78;;;27.92;;
48040;SDS011;33815;48.386;11.738;2022-12-16T04:56:01;63.42;;;29.92;;
48040;SDS011;33815;48.386;11.738;2022-12-16T04:58:45;65.30;;;29.35;;
48040;SDS011;33815;48.386;11.738;2022-12-16T05:01:36;68.03;;;29.60;;
48040;SDS011;33815;48.386;11.738;2022-12-16T05:04:20;65.85;;;29.67;;
48040;SDS011;33815;48.386;11.738;2022-12-16T05:07:04;61.25;;;28.98;;
48040;SDS011;33815;48.386;11.738;2022-12-16T05:09:48;65.18;;;27.02;;
48040;SDS011;33815;48.386;11.738;2022-12-16T05:12:32;69.07;;;27.58;;
48040;SDS011;33815;48.386;11.738;2022-12-16T05:15:16;65.07;;;28.30;;
48040;SDS011;33815;48.386;11.738;2022-12-16T05:18:06;63.78;;;29.17;;
48040;SDS011;33815;48.386;11.738;2022-12-16T05:20:54;65.78;;;29.27;;
48040;SDS011;33815;48.386;11.738;2022-12-16T05:23:40;62.87;;;29.70;;
48040;SDS011;33815;48.386;11.738;2022-12-16T05:26:24;66.45;;;29.33;;
48040;SDS011;33815;48.386;11.738;2022-12-16T05:29:07;58.15;;;28.23;;
48040;SDS011;33815;48.386;11.738;2022-12-16T05:31:51;66.50;;;29.38;;
48040;SDS011;33815;48.386;11.738;2022-12-16T05:34:35;65.15;;;28.77;;
48040;SDS011;33815;48.386;11.738;2022-12-16T05:37:19;66.00;;;31.23;;
48040;SDS011;33815;48.386;11.738;2022-12-16T05:40:03;61.67;;;29.33;;
48040;SDS011;33815;48.386;11.738;2022-12-16T05:42:47;60.17;;;27.67;;
48040;SDS011;33815;48.386;11.738;2022-12-16T05:45:31;62.75;;;29.08;;
48040;SDS011;33815;48.386;11.738;2022-12-16T05:48:15;61.13;;;28.58;;
48040;SDS011;33815;48.386;11.738;2022-12-16T05:50:59;67.40;;;29.17;;
48040;SDS011;33815;48.386;11.738;2022-12-16T05:53:43;64.25;;;28.50;;
48040;SDS011;33815;48.386;11.738;2022-12-16T05:56:27;59.00;;;29.67;;
48040;SDS011;33815;48.386;11.738;2022-12-16T05:59:11;63.55;;;27.88;;
48040;SDS011;33815;48.386;11.738;2022-12-16T06:01:55;62.67;;;29.02;;
48040;SDS011;33815;48.386;11.738;2022-12-16T06:04:39;61.70;;;29.00;;
48040;SDS011;33815;48.386;11.738;2022-12-16T06:07:23;63.13;;;29.17;;
48040;SDS011;33815;48.386;11.738;2022-12-16T06:10:07;76.35;;;30.73;;
48040;SDS011;33815;48.386;11.738;2022-12-16T06:12:50;64.53;;;29.02;;
48040;SDS011;33815;48.386;11.738;2022-12-16T06:15:34;61.53;;;28.90;;
48040;SDS011;33815;48.386;11.738;2022-12-16T06:18:18;65.32;;;30.23;;
48040;SDS011;33815;48.386;11.738;2022-12-16T06:21:02;75.28;;;31.95;;
48040;SDS011;33815;48.386;11.738;2022-12-16T06:23:46;73.22;;;31.70;;
48040;SDS011;33815;48.386;11.738;2022-12-16T06:26:30;60.58;;;29.60;;
48040;SDS011;33815;48.386;11.738;2022-12-16T06:29:14;65.65;;;28.58;;
48040;SDS011;33815;48.386;11.738;2022-12-16T06:31:58;60.67;;;29.25;;
48040;SDS011;33815;48.386;11.738;2022-12-16T06:34:42;56.90;;;28.92;;
48040;SDS011;33815;48.386;11.738;2022-12-16T06:37:25;69.30;;;29.45;;
48040;SDS011;33815;48.386;11.738;2022-12-16T06:40:09;60.42;;;27.33;;
48040;SDS011;33815;48.386;11.738;2022-12-16T06:42:53;68.75;;;29.02;;
48040;SDS011;33815;48.386;11.738;2022-12-16T06:45:37;69.32;;;29.60;;
48040;SDS011;33815;48.386;11.738;2022-12-16T06:48:21;69.97;;;29.88;;
48040;SDS011;33815;48.386;11.738;2022-12-16T06:51:05;70.75;;;30.70;;
48040;SDS011;33815;48.386;11.738;2022-12-16T06:53:49;64.30;;;27.95;;
48040;SDS011;33815;48.386;11.738;2022-12-16T06:56:33;68.20;;;30.50;;
48040;SDS011;33815;48.386;11.738;2022-12-16T06:59:17;61.53;;;29.15;;
48040;SDS011;33815;48.386;11.738;2022-12-16T07:02:00;74.07;;;29.67;;
48040;SDS011;33815;48.386;11.738;2022-12-16T07:04:44;67.30;;;29.27;;
48040;SDS011;33815;48.386;11.738;2022-12-16T07:07:28;63.50;;;27.50;;
48040;SDS011;33815;48.386;11.738;2022-12-16T07:10:12;68.40;;;30.35;;
48040;SDS011;33815;48.386;11.738;2022-12-16T07:12:57;64.80;;;28.23;;
48040;SDS011;33815;48.386;11.738;2022-12-16T07:15:42;66.03;;;28.63;;
48040;SDS011;33815;48.386;11.738;2022-12-16T07:18:26;63.40;;;28.77;;
48040;SDS011;33815;48.386;11.738;2022-12-16T07:21:10;59.75;;;28.85;;
48040;SDS011;33815;48.386;11.738;2022-12-16T07:23:54;70.95;;;28.65;;
48040;SDS011;33815;48.386;11.738;2022-12-16T07:26:37;72.30;;;29.58;;
48040;SDS011;33815;48.386;11.738;2022-12-16T07:29:21;67.70;;;30.02;;
48040;SDS011;33815;48.386;11.738;2022-12-16T07:32:05;60.65;;;28.55;;
48040;SDS011;33815;48.386;11.738;2022-12-16T07:34:49;61.28;;;28.90;;
48040;SDS011;33815;48.386;11.738;2022-12-16T07:37:33;68.78;;;29.67;;
48040;SDS011;33815;48.386;11.738;2022-12-16T07:40:17;65.00;;;29.23;;
48040;SDS011;33815;48.386;11.738;2022-12-16T07:43:01;65.43;;;28.38;;
48040;SDS011;33815;48.386;11.738;2022-12-16T07:45:45;62.40;;;27.17;;
48040;SDS011;33815;48.386;11.738;2022-12-16T07:48:29;66.97;;;28.35;;
48040;SDS011;33815;48.386;11.738;2022-12-16T07:51:13;62.13;;;27.77;;
48040;SDS011;33815;48.386;11.738;2022-12-16T07:53:57;65.82;;;30.70;;
48040;SDS011;33815;48.386;11.738;2022-12-16T07:56:41;66.35;;;27.33;;
48040;SDS011;33815;48.386;11.738;2022-12-16T07:59:25;53.72;;;26.15;;
48040;SDS011;33815;48.386;11.738;2022-12-16T08:02:09;65.20;;;28.42;;
48040;SDS011;33815;48.386;11.738;2022-12-16T08:04:53;62.97;;;28.42;;
48040;SDS011;33815;48.386;11.738;2022-12-16T08:07:40;58.88;;;26.48;;
48040;SDS011;33815;48.386;11.738;2022-12-16T08:10:24;59.45;;;28.25;;
48040;SDS011;33815;48.386;11.738;2022-12-16T08:13:08;61.25;;;27.88;;
48040;SDS011;33815;48.386;11.738;2022-12-16T08:15:52;60.50;;;29.75;;
48040;SDS011;33815;48.386;11.738;2022-12-16T08:18:36;62.60;;;28.98;;
48040;SDS011;33815;48.386;11.738;2022-12-16T08:21:20;63.05;;;26.95;;
48040;SDS011;33815;48.386;11.738;2022-12-16T08:24:04;53.33;;;28.45;;
48040;SDS011;33815;48.386;11.738;2022-12-16T08:26:48;67.85;;;29.95;;
48040;SDS011;33815;48.386;11.738;2022-12-16T08:29:32;57.78;;;27.35;;
48040;SDS011;33815;48.386;11.738;2022-12-16T08:32:16;51.25;;;25.52;;
48040;SDS011;33815;48.386;11.738;2022-12-16T08:35:04;60.70;;;29.50;;
48040;SDS011;33815;48.386;11.738;2022-12-16T08:37:48;55.38;;;26.58;;
48040;SDS011;33815;48.386;11.738;2022-12-16T08:40:32;70.30;;;29.58;;
48040;SDS011;33815;48.386;11.738;2022-12-16T08:43:16;62.83;;;28.10;;
48040;SDS011;33815;48.386;11.738;2022-12-16T08:46:00;61.95;;;28.10;;
48040;SDS011;33815;48.386;11.738;2022-12-16T08:48:44;57.17;;;28.20;;
48040;SDS011;33815;48.386;11.738;2022-12-16T08:51:29;61.60;;;26.88;;
48040;SDS011;33815;48.386;11.738;2022-12-16T08:54:13;60.95;;;29.00;;
48040;SDS011;33815;48.386;11.738;2022-12-16T08:56:57;57.33;;;27.33;;
48040;SDS011;33815;48.386;11.738;2022-12-16T08:59:41;55.75;;;28.08;;
48040;SDS011;33815;48.386;11.738;2022-12-16T09:02:25;57.80;;;28.95;;
48040;SDS011;33815;48.386;11.738;2022-12-16T09:05:08;54.45;;;26.20;;
48040;SDS011;33815;48.386;11.738;2022-12-16T09:07:57;57.97;;;26.50;;
48040;SDS011;33815;48.386;11.738;2022-12-16T09:10:41;59.83;;;27.30;;
48040;SDS011;33815;48.386;11.738;2022-12-16T09:13:25;50.75;;;26.90;;
48040;SDS011;33815;48.386;11.738;2022-12-16T09:16:09;59.20;;;27.25;;
48040;SDS011;33815;48.386;11.738;2022-12-16T09:18:53;57.97;;;27.20;;
48040;SDS011;33815;48.386;11.738;2022-12-16T09:21:37;54.80;;;27.30;;
48040;SDS011;33815;48.386;11.738;2022-12-16T09:24:21;54.92;;;25.75;;
48040;SDS011;33815;48.386;11.738;2022-12-16T09:27:05;53.70;;;25.67;;
48040;SDS011;33815;48.386;11.738;2022-12-16T09:29:49;61.03;;;28.60;;
48040;SDS011;33815;48.386;11.738;2022-12-16T09:32:33;45.92;;;23.75;;
48040;SDS011;33815;48.386;11.738;2022-12-16T09:35:17;52.25;;;25.45;;
48040;SDS011;33815;48.386;11.738;2022-12-16T09:38:01;54.08;;;24.88;;
48040;SDS011;33815;48.386;11.738;2022-12-16T09:40:44;56.17;;;26.75;;
48040;SDS011;33815;48.386;11.738;2022-12-16T09:43:35;55.65;;;25.17;;
48040;SDS011;33815;48.386;11.738;2022-12-16T09:46:47;53.45;;;26.08;;
48040;SDS011;33815;48.386;11.738;2022-12-16T09:49:50;56.70;;;25.50;;
48040;SDS011;33815;48.386;11.738;2022-12-16T09:52:40;56.65;;;26.90;;
48040;SDS011;33815;48.386;11.738;2022-12-16T09:55:30;55.85;;;25.58;;
48040;SDS011;33815;48.386;11.738;2022-12-16T09:58:19;48.35;;;23.23;;
48040;SDS011;33815;48.386;11.738;2022-12-16T10:03:52;59.95;;;27.40;;
48040;SDS011;33815;48.386;11.738;2022-12-16T10:06:46;55.22;;;24.42;;
48040;SDS011;33815;48.386;11.738;2022-12-16T10:09:44;59.45;;;27.27;;
48040;SDS011;33815;48.386;11.738;2022-12-16T10:12:36;48.60;;;24.52;;
48040;SDS011;33815;48.386;11.738;2022-12-16T10:21:56;46.13;;;22.75;;
48040;SDS011;33815;48.386;11.738;2022-12-16T10:24:59;45.00;;;23.25;;
48040;SDS011;33815;48.386;11.738;2022-12-16T10:27:51;51.92;;;26.00;;
48040;SDS011;33815;48.386;11.738;2022-12-16T10:30:43;55.90;;;25.75;;
48040;SDS011;33815;48.386;11.738;2022-12-16T10:33:27;51.95;;;23.20;;
48040;SDS011;33815;48.386;11.738;2022-12-16T10:36:13;51.05;;;23.98;;
48040;SDS011;33815;48.386;11.738;2022-12-16T10:42:04;45.92;;;25.05;;
48040;SDS011;33815;48.386;11.738;2022-12-16T10:44:58;47.42;;;22.25;;
48040;SDS011;33815;48.386;11.738;2022-12-16T10:47:45;59.67;;;25.40;;
48040;SDS011;33815;48.386;11.738;2022-12-16T10:50:29;50.80;;;24.00;;
48040;SDS011;33815;48.386;11.738;2022-12-16T10:53:14;48.58;;;24.20;;
48040;SDS011;33815;48.386;11.738;2022-12-16T10:59:33;52.90;;;23.88;;
48040;SDS011;33815;48.386;11.738;2022-12-16T11:02:20;52.60;;;25.13;;
48040;SDS011;33815;48.386;11.738;2022-12-16T11:11:13;40.90;;;21.23;;
48040;SDS011;33815;48.386;11.738;2022-12-16T11:17:14;55.17;;;24.65;;
48040;SDS011;33815;48.386;11.738;2022-12-16T11:20:09;50.45;;;24.27;;
48040;SDS011;33815;48.386;11.738;2022-12-16T11:26:09;42.08;;;23.10;;
48040;SDS011;33815;48.386;11.738;2022-12-16T11:29:26;47.80;;;22.50;;
48040;SDS011;33815;48.386;11.738;2022-12-16T11:32:12;53.72;;;23.67;;
48040;SDS011;33815;48.386;11.738;2022-12-16T11:35:03;58.92;;;25.23;;
48040;SDS011;33815;48.386;11.738;2022-12-16T11:37:52;56.03;;;25.50;;
48040;SDS011;33815;48.386;11.738;2022-12-16T11:40:38;44.27;;;23.33;;
48040;SDS011;33815;48.386;11.738;2022-12-16T11:43:22;45.63;;;24.63;;
48040;SDS011;33815;48.386;11.738;2022-12-16T11:46:09;51.65;;;24.27;;
48040;SDS011;33815;48.386;11.738;2022-12-16T11:48:57;47.38;;;23.58;;
48040;SDS011;33815;48.386;11.738;2022-12-16T11:51:44;50.83;;;24.52;;
48040;SDS011;33815;48.386;11.738;2022-12-16T11:54:49;52.92;;;24.13;;
48040;SDS011;33815;48.386;11.738;2022-12-16T11:57:55;54.97;;;24.45;;
48040;SDS011;33815;48.386;11.738;2022-12-16T12:00:48;57.67;;;25.38;;
48040;SDS011;33815;48.386;11.738;2022-12-16T12:03:43;49.78;;;22.83;;
48040;SDS011;33815;48.386;11.738;2022-12-16T12:06:36;55.45;;;25.40;;
48040;SDS011;33815;48.386;11.738;2022-12-16T12:09:41;49.67;;;24.05;;
48040;SDS011;33815;48.386;11.738;2022-12-16T12:12:36;64.95;;;27.67;;
48040;SDS011;33815;48.386;11.738;2022-12-16T12:15:37;33.60;;;19.03;;
48040;SDS011;33815;48.386;11.738;2022-12-16T12:18:37;48.30;;;24.20;;
48040;SDS011;33815;48.386;11.738;2022-12-16T12:21:51;36.57;;;17.07;;
48040;SDS011;33815;48.386;11.738;2022-12-16T12:24:39;48.30;;;22.60;;
48040;SDS011;33815;48.386;11.738;2022-12-16T12:27:34;54.47;;;24.83;;
48040;SDS011;33815;48.386;11.738;2022-12-16T12:30:26;47.38;;;23.45;;
48040;SDS011;33815;48.386;11.738;2022-12-16T12:39:30;44.85;;;21.50;;
48040;SDS011;33815;48.386;11.738;2022-12-16T12:42:26;43.08;;;21.00;;
48040;SDS011;33815;48.386;11.738;2022-12-16T12:45:27;44.85;;;23.38;;
48040;SDS011;33815;48.386;11.738;2022-12-16T12:51:22;43.92;;;21.83;;
48040;SDS011;33815;48.386;11.738;2022-12-16T12:54:15;50.25;;;24.85;;
48040;SDS011;33815;48.386;11.738;2022-12-16T12:57:08;45.97;;;23.88;;
48040;SDS011;33815;48.386;11.738;2022-12-16T13:00:05;45.60;;;22.58;;
48040;SDS011;33815;48.386;11.738;2022-12-16T13:05:44;48.97;;;22.98;;
48040;SDS011;33815;48.386;11.738;2022-12-16T13:09:20;50.60;;;23.75;;
48040;SDS011;33815;48.386;11.738;2022-12-16T13:11:34;47.72;;;22.73;;
48040;SDS011;33815;48.386;11.738;2022-12-16T13:17:15;44.58;;;23.73;;
48040;SDS011;33815;48.386;11.738;2022-12-16T13:20:01;49.40;;;26.20;;
48040;SDS011;33815;48.386;11.738;2022-12-16T13:22:45;47.40;;;24.63;;
48040;SDS011;33815;48.386;11.738;2022-12-16T13:25:35;49.80;;;22.77;;
48040;SDS011;33815;48.386;11.738;2022-12-16T13:28:32;46.05;;;22.40;;
48040;SDS011;33815;48.386;11.738;2022-12-16T13:31:19;43.42;;;21.85;;
48040;SDS011;33815;48.386;11.738;2022-12-16T13:34:18;44.70;;;23.17;;
48040;SDS011;33815;48.386;11.738;2022-12-16T13:37:03;49.00;;;23.13;;
48040;SDS011;33815;48.386;11.738;2022-12-16T13:42:54;44.85;;;21.65;;
48040;SDS011;33815;48.386;11.738;2022-12-16T13:48:42;46.60;;;22.48;;
48040;SDS011;33815;48.386;11.738;2022-12-16T13:54:29;46.83;;;22.70;;
48040;SDS011;33815;48.386;11.738;2022-12-16T13:57:17;40.05;;;20.73;;
48040;SDS011;33815;48.386;11.738;2022-12-16T14:00:04;45.50;;;24.20;;
48040;SDS011;33815;48.386;11.738;2022-12-16T14:02:49;49.72;;;21.70;;
48040;SDS011;33815;48.386;11.738;2022-12-16T14:05:35;43.75;;;22.63;;
48040;SDS011;33815;48.386;11.738;2022-12-16T14:08:24;44.83;;;20.73;;
48040;SDS011;33815;48.386;11.738;2022-12-16T14:11:17;53.70;;;23.10;;
48040;SDS011;33815;48.386;11.738;2022-12-16T14:14:09;45.65;;;21.40;;
48040;SDS011;33815;48.386;11.738;2022-12-16T14:17:02;48.78;;;21.83;;
48040;SDS011;33815;48.386;11.738;2022-12-16T14:25:57;43.15;;;20.38;;
48040;SDS011;33815;48.386;11.738;2022-12-16T14:28:42;39.17;;;20.10;;
48040;SDS011;33815;48.386;11.738;2022-12-16T14:31:28;47.45;;;22.50;;
48040;SDS011;33815;48.386;11.738;2022-12-16T14:34:21;50.85;;;22.92;;
48040;SDS011;33815;48.386;11.738;2022-12-16T14:37:12;35.25;;;17.45;;
48040;SDS011;33815;48.386;11.738;2022-12-16T14:40:14;43.92;;;21.15;;
48040;SDS011;33815;48.386;11.738;2022-12-16T14:43:02;43.55;;;21.67;;
48040;SDS011;33815;48.386;11.738;2022-12-16T14:45:53;46.13;;;23.08;;
48040;SDS011;33815;48.386;11.738;2022-12-16T14:48:37;49.70;;;23.60;;
48040;SDS011;33815;48.386;11.738;2022-12-16T14:54:48;45.63;;;22.15;;
48040;SDS011;33815;48.386;11.738;2022-12-16T14:57:18;41.28;;;20.27;;
48040;SDS011;33815;48.386;11.738;2022-12-16T15:00:20;40.13;;;20.58;;
48040;SDS011;33815;48.386;11.738;2022-12-16T15:03:24;36.50;;;18.65;;
48040;SDS011;33815;48.386;11.738;2022-12-16T15:06:26;39.53;;;19.02;;
48040;SDS011;33815;48.386;11.738;2022-12-16T15:09:29;37.95;;;18.13;;
48040;SDS011;33815;48.386;11.738;2022-12-16T15:12:18;38.58;;;19.65;;
48040;SDS011;33815;48.386;11.738;2022-12-16T15:15:04;39.95;;;20.00;;
48040;SDS011;33815;48.386;11.738;2022-12-16T15:17:53;36.38;;;18.50;;
48040;SDS011;33815;48.386;11.738;2022-12-16T15:20:46;39.50;;;19.52;;
48040;SDS011;33815;48.386;11.738;2022-12-16T15:23:35;38.22;;;20.95;;
48040;SDS011;33815;48.386;11.738;2022-12-16T15:26:23;45.30;;;21.77;;
48040;SDS011;33815;48.386;11.738;2022-12-16T15:35:30;46.38;;;20.38;;
48040;SDS011;33815;48.386;11.738;2022-12-16T15:38:27;42.13;;;19.40;;
48040;SDS011;33815;48.386;11.738;2022-12-16T15:44:16;37.30;;;19.55;;
48040;SDS011;33815;48.386;11.738;2022-12-16T15:47:02;42.63;;;19.90;;
48040;SDS011;33815;48.386;11.738;2022-12-16T15:49:46;36.83;;;18.52;;
48040;SDS011;33815;48.386;11.738;2022-12-16T15:52:33;40.58;;;18.85;;
48040;SDS011;33815;48.386;11.738;2022-12-16T15:55:27;40.28;;;19.08;;
48040;SDS011;33815;48.386;11.738;2022-12-16T15:58:28;40.35;;;19.98;;
48040;SDS011;33815;48.386;11.738;2022-12-16T16:01:15;41.10;;;20.20;;
48040;SDS011;33815;48.386;11.738;2022-12-16T16:04:01;42.03;;;21.02;;
48040;SDS011;33815;48.386;11.738;2022-12-16T16:06:47;42.58;;;20.38;;
48040;SDS011;33815;48.386;11.738;2022-12-16T16:09:33;37.50;;;19.67;;
48040;SDS011;33815;48.386;11.738;2022-12-16T16:12:19;41.73;;;19.87;;
48040;SDS011;33815;48.386;11.738;2022-12-16T16:15:05;38.83;;;19.42;;
48040;SDS011;33815;48.386;11.738;2022-12-16T16:18:02;41.00;;;19.63;;
48040;SDS011;33815;48.386;11.738;2022-12-16T16:20:47;35.90;;;18.27;;
48040;SDS011;33815;48.386;11.738;2022-12-16T16:23:32;42.65;;;18.85;;
48040;SDS011;33815;48.386;11.738;2022-12-16T16:26:16;35.97;;;17.77;;
48040;SDS011;33815;48.386;11.738;2022-12-16T16:29:21;36.80;;;18.30;;
48040;SDS011;33815;48.386;11.738;2022-12-16T16:32:06;41.85;;;20.25;;
48040;SDS011;33815;48.386;11.738;2022-12-16T16:34:51;39.47;;;19.00;;
48040;SDS011;33815;48.386;11.738;2022-12-16T16:37:35;33.65;;;19.48;;
48040;SDS011;33815;48.386;11.738;2022-12-16T16:43:20;36.58;;;21.33;;
48040;SDS011;33815;48.386;11.738;2022-12-16T16:46:11;38.90;;;18.27;;
48040;SDS011;33815;48.386;11.738;2022-12-16T16:49:04;38.42;;;17.50;;
48040;SDS011;33815;48.386;11.738;2022-12-16T16:52:02;37.45;;;18.52;;
48040;SDS011;33815;48.386;11.738;2022-12-16T16:54:46;41.10;;;19.38;;
48040;SDS011;33815;48.386;11.738;2022-12-16T16:57:31;31.48;;;17.27;;
48040;SDS011;33815;48.386;11.738;2022-12-16T17:00:19;37.63;;;18.48;;
48040;SDS011;33815;48.386;11.738;2022-12-16T17:03:03;41.78;;;19.73;;
48040;SDS011;33815;48.386;11.738;2022-12-16T17:05:47;42.83;;;19.80;;
48040;SDS011;33815;48.386;11.738;2022-12-16T17:08:31;35.53;;;17.83;;
48040;SDS011;33815;48.386;11.738;2022-12-16T17:11:18;42.15;;;19.33;;
48040;SDS011;33815;48.386;11.738;2022-12-16T17:14:04;34.85;;;17.52;;
48040;SDS011;33815;48.386;11.738;2022-12-16T17:16:48;35.65;;;17.65;;